Time;durP1;ratioP1;P1;durP2;ratioP2;P2;SDS_P1;SDS_P2;PMS_P1;PMS_P2;Temp;Humidity;BMP_temperature;BMP_pressure;BME280_temperature;BME280_humidity;BME280_pressure;Samples;Min_cycle;Max_cycle;Signal;HPM_P1;HPM_P2
2022/12/04 00:00:34;;;;;;;52.93;48.10;;;;;;;1.02;100.00;102368.19;5031759;28;20463;-52
2022/12/04 00:03:02;;;;;;;51.70;46.73;;;;;;;0.98;100.00;102379.84;5031211;28;20467;-51
2022/12/04 00:05:29;;;;;;;53.33;48.73;;;;;;;0.94;100.00;102374.84;5031584;28;20436;-52
2022/12/04 00:07:58;;;;;;;55.00;49.53;;;;;;;0.97;100.00;102378.13;5031755;28;20436;-53
2022/12/04 00:10:26;;;;;;;54.20;49.33;;;;;;;0.99;100.00;102383.28;5031476;28;20453;-48
2022/12/04 00:12:54;;;;;;;54.07;48.63;;;;;;;0.92;100.00;102371.50;5031268;28;20471;-51
2022/12/04 00:15:22;;;;;;;53.57;48.10;;;;;;;0.98;100.00;102384.25;5031634;28;20440;-50
2022/12/04 00:17:53;;;;;;;55.10;49.73;;;;;;;0.91;100.00;102373.25;5031875;28;20882;-49
2022/12/04 00:20:21;;;;;;;54.37;49.40;;;;;;;0.92;100.00;102371.50;5031561;28;20454;-52
2022/12/04 00:22:49;;;;;;;55.00;49.30;;;;;;;0.95;100.00;102384.44;5031120;28;20514;-46
2022/12/04 00:25:18;;;;;;;55.07;49.63;;;;;;;0.98;100.00;102387.72;5031384;28;20523;-47
2022/12/04 00:27:46;;;;;;;56.47;51.03;;;;;;;0.99;100.00;102380.66;5031852;28;20428;-48
2022/12/04 00:30:14;;;;;;;55.07;49.90;;;;;;;0.93;100.00;102379.25;5031491;28;20458;-52
2022/12/04 00:32:42;;;;;;;55.00;49.23;;;;;;;0.91;100.00;102375.88;5031145;28;20491;-51
2022/12/04 00:35:09;;;;;;;57.23;51.73;;;;;;;0.89;100.00;102369.06;5031238;28;20833;-48
2022/12/04 00:37:37;;;;;;;58.13;52.33;;;;;;;0.89;100.00;102369.06;5031205;28;20487;-50
2022/12/04 00:40:06;;;;;;;55.73;50.53;;;;;;;0.88;100.00;102370.81;5031352;28;20906;-49
2022/12/04 00:42:35;;;;;;;57.07;51.50;;;;;;;0.82;100.00;102372.97;5031135;28;20482;-49
2022/12/04 00:45:03;;;;;;;56.77;51.63;;;;;;;0.87;100.00;102377.00;5031414;28;20937;-52
2022/12/04 00:47:31;;;;;;;53.70;48.57;;;;;;;0.92;100.00;102374.13;5031469;28;20442;-52
2022/12/04 00:49:59;;;;;;;53.60;48.43;;;;;;;0.90;100.00;102371.56;5031283;28;20452;-49
2022/12/04 00:52:27;;;;;;;52.97;48.17;;;;;;;0.87;100.00;102361.25;5030952;28;20476;-47
2022/12/04 00:54:55;;;;;;;56.80;51.13;;;;;;;0.89;100.00;102369.06;5027423;28;20843;-49
2022/12/04 00:57:22;;;;;;;55.27;50.27;;;;;;;0.91;100.00;102368.00;5031234;28;20428;-48
2022/12/04 00:59:51;;;;;;;59.60;53.40;;;;;;;0.96;100.00;102375.59;5031278;28;20456;-50
2022/12/04 01:02:19;;;;;;;53.30;48.20;;;;;;;0.93;100.00;102373.16;5030731;28;20460;-51
2022/12/04 01:04:47;;;;;;;53.80;48.60;;;;;;;0.85;100.00;102378.91;5031263;28;20455;-52
2022/12/04 01:07:14;;;;;;;52.93;48.53;;;;;;;0.81;100.00;102372.13;5031500;28;20439;-46
2022/12/04 01:09:42;;;;;;;51.90;46.90;;;;;;;0.85;100.00;102383.28;5031239;28;20455;-49
2022/12/04 01:12:09;;;;;;;53.80;48.50;;;;;;;0.79;100.00;102376.63;5030895;28;20471;-49
2022/12/04 01:14:42;;;;;;;50.97;46.27;;;;;;;0.82;100.00;102373.81;5033156;28;20432;-47
2022/12/04 01:17:11;;;;;;;52.83;47.80;;;;;;;0.78;100.00;102377.56;5034753;28;20436;-49
2022/12/04 01:19:39;;;;;;;55.00;49.27;;;;;;;0.79;100.00;102375.78;5034813;28;20456;-51
2022/12/04 01:22:07;;;;;;;54.50;49.30;;;;;;;0.72;100.00;102370.06;5034023;28;21003;-47
2022/12/04 01:24:34;;;;;;;54.03;49.33;;;;;;;0.76;100.00;102370.72;5034596;28;21048;-51
2022/12/04 01:27:02;;;;;;;54.10;49.10;;;;;;;0.77;100.00;102375.91;5034674;28;20444;-50
2022/12/04 01:29:30;;;;;;;53.97;48.77;;;;;;;0.75;100.00;102377.75;5034445;28;20987;-49
2022/12/04 01:31:58;;;;;;;59.60;50.17;;;;;;;0.76;100.00;102373.34;5034214;28;20464;-51
2022/12/04 01:34:27;;;;;;;57.70;51.93;;;;;;;0.78;100.00;102374.09;5034319;28;20518;-48
2022/12/04 01:36:54;;;;;;;56.40;50.93;;;;;;;0.70;100.00;102374.56;5034544;28;20430;-45
2022/12/04 01:39:22;;;;;;;59.07;53.00;;;;;;;0.72;100.00;102372.69;5034459;28;20579;-52
2022/12/04 01:41:50;;;;;;;58.30;52.60;;;;;;;0.74;100.00;102368.22;5033896;28;20456;-49
2022/12/04 01:44:21;;;;;;;56.90;51.30;;;;;;;0.76;100.00;102370.72;5034096;28;20940;-46
2022/12/04 01:46:52;;;;;;;58.73;52.87;;;;;;;0.74;100.00;102373.47;5034615;28;20775;-49
2022/12/04 01:49:23;;;;;;;57.93;52.40;;;;;;;0.75;100.00;102372.50;5034151;28;20452;-47
2022/12/04 01:51:57;;;;;;;59.07;53.40;;;;;;;0.80;100.00;102377.50;5033814;28;20980;-46
2022/12/04 01:54:28;;;;;;;56.83;51.60;;;;;;;0.77;100.00;102365.41;5033684;28;20482;-51
2022/12/04 01:57:02;;;;;;;59.70;53.70;;;;;;;0.76;100.00;102373.34;5033923;28;20969;-48
2022/12/04 01:59:35;;;;;;;56.47;51.10;;;;;;;0.71;100.00;102375.44;5034137;28;20791;-51
2022/12/04 02:02:06;;;;;;;54.33;49.00;;;;;;;0.75;100.00;102374.28;5033816;28;20472;-49
2022/12/04 02:04:35;;;;;;;56.17;50.57;;;;;;;0.74;100.00;102377.88;5033595;28;20458;-50
2022/12/04 02:07:04;;;;;;;56.30;50.50;;;;;;;0.79;100.00;102376.63;5033760;28;20436;-51
2022/12/04 02:09:33;;;;;;;55.13;50.07;;;;;;;0.78;100.00;102374.09;5033939;28;20842;-50
2022/12/04 02:12:08;;;;;;;56.47;50.47;;;;;;;0.85;100.00;102384.16;5033474;28;20464;-50
2022/12/04 02:14:44;;;;;;;57.07;51.43;;;;;;;0.92;100.00;102376.75;5033610;28;20810;-49
2022/12/04 02:17:19;;;;;;;56.40;50.57;;;;;;;0.90;100.00;102383.84;5036727;22;20740;-42
2022/12/04 02:20:15;;;;;;;55.90;50.30;;;;;;;0.87;100.00;102387.50;5013620;28;20896;-43
2022/12/04 02:23:06;;;;;;;57.03;51.63;;;;;;;0.90;100.00;102386.47;5013411;28;20472;-43
2022/12/04 02:25:44;;;;;;;55.97;50.40;;;;;;;0.91;100.00;102380.28;5013480;28;20842;-45
2022/12/04 02:28:21;;;;;;;55.30;49.37;;;;;;;0.91;100.00;102378.50;5014047;28;20437;-42
2022/12/04 02:30:52;;;;;;;54.83;49.27;;;;;;;0.91;100.00;102381.16;5013564;28;20433;-42
2022/12/04 02:33:24;;;;;;;56.17;50.30;;;;;;;0.96;100.00;102372.97;5012865;28;20477;-42
2022/12/04 02:35:58;;;;;;;56.90;50.87;;;;;;;0.98;100.00;102363.22;5013499;28;20452;-44
2022/12/04 02:38:32;;;;;;;59.70;53.93;;;;;;;1.04;100.00;102371.56;5013549;28;20440;-46
2022/12/04 02:41:08;;;;;;;54.17;49.43;;;;;;;1.02;100.00;102367.31;5013637;28;20429;-46
2022/12/04 02:43:43;;;;;;;55.17;49.87;;;;;;;1.03;100.00;102369.03;5012689;28;20908;-44
2022/12/04 02:46:17;;;;;;;54.57;49.27;;;;;;;0.97;100.00;102361.53;5013338;28;20449;-44
2022/12/04 02:48:48;;;;;;;54.70;49.20;;;;;;;1.03;100.00;102358.53;5013228;28;20503;-44
2022/12/04 02:51:19;;;;;;;57.57;51.67;;;;;;;1.10;100.00;102359.84;5013264;28;20443;-44
2022/12/04 02:53:52;;;;;;;56.50;51.20;;;;;;;1.12;100.00;102365.81;5012569;28;20484;-47
2022/12/04 02:56:24;;;;;;;56.73;50.93;;;;;;;1.11;100.00;102353.63;4997431;28;20453;-45
2022/12/04 02:58:56;;;;;;;54.57;49.23;;;;;;;1.13;100.00;102354.38;4993426;28;20799;-46
2022/12/04 03:01:30;;;;;;;55.17;49.70;;;;;;;1.09;100.00;102355.50;4993738;28;20441;-44
2022/12/04 03:04:00;;;;;;;57.63;51.80;;;;;;;1.13;100.00;102364.06;5012892;28;20441;-44
2022/12/04 03:06:33;;;;;;;57.50;51.70;;;;;;;1.16;100.00;102362.09;5012950;28;20476;-47
2022/12/04 03:09:06;;;;;;;56.10;50.53;;;;;;;1.19;100.00;102354.00;5012989;28;20775;-47
2022/12/04 03:11:38;;;;;;;55.87;50.40;;;;;;;1.20;100.00;102354.81;5012337;28;20799;-46
2022/12/04 03:14:14;;;;;;;59.83;53.97;;;;;;;1.24;100.00;102359.81;5012527;28;21019;-46
2022/12/04 03:16:42;;;;;;;61.17;53.37;;;;;;;1.24;100.00;102359.81;5012639;28;20467;-44
2022/12/04 03:19:14;;;;;;;56.67;51.33;;;;;;;1.25;100.00;102351.00;5012918;28;20483;-47
2022/12/04 03:21:46;;;;;;;58.40;52.70;;;;;;;1.29;100.00;102354.25;5012297;28;20433;-45
2022/12/04 03:24:19;;;;;;;56.07;51.03;;;;;;;1.27;100.00;102356.97;5012399;28;20432;-44
2022/12/04 03:26:51;;;;;;;57.97;52.70;;;;;;;1.29;100.00;102351.59;5012798;28;20449;-44
2022/12/04 03:29:24;;;;;;;56.00;50.57;;;;;;;1.29;100.00;102346.34;5012702;28;20440;-43
2022/12/04 03:31:57;;;;;;;58.97;53.17;;;;;;;1.27;100.00;102353.50;5012121;28;20468;-45
2022/12/04 03:34:32;;;;;;;56.10;50.63;;;;;;;1.26;100.00;102357.91;5012159;28;20483;-43
2022/12/04 03:37:06;;;;;;;58.73;52.93;;;;;;;1.26;100.00;102364.94;5012184;28;20468;-42
2022/12/04 03:39:37;;;;;;;60.50;53.93;;;;;;;1.27;100.00;102367.50;5012781;28;20448;-43
2022/12/04 03:42:13;;;;;;;59.10;53.20;;;;;;;1.29;100.00;102368.22;5011911;28;20460;-47
2022/12/04 03:44:46;;;;;;;60.37;53.90;;;;;;;1.31;100.00;102376.88;5012054;28;20432;-45
2022/12/04 03:47:17;;;;;;;58.70;52.37;;;;;;;1.35;100.00;102373.09;5012424;28;20464;-44
2022/12/04 03:49:52;;;;;;;58.77;52.47;;;;;;;1.37;100.00;102368.59;5012517;28;20428;-44
2022/12/04 03:52:25;;;;;;;60.17;53.77;;;;;;;1.39;100.00;102369.34;5011973;28;20464;-44
2022/12/04 03:54:59;;;;;;;57.80;52.40;;;;;;;1.43;100.00;102376.09;5011967;28;20477;-43
2022/12/04 03:57:32;;;;;;;55.80;49.93;;;;;;;1.44;100.00;102369.03;5011929;28;20965;-44
2022/12/04 04:00:05;;;;;;;57.50;51.70;;;;;;;1.48;100.00;102374.00;5012263;28;20429;-44
2022/12/04 04:02:39;;;;;;;58.83;52.97;;;;;;;1.53;100.00;102373.69;5011591;28;20464;-45
2022/12/04 04:05:11;;;;;;;56.03;50.57;;;;;;;1.56;100.00;102370.88;5011871;28;20951;-44
2022/12/04 04:07:43;;;;;;;59.70;53.30;;;;;;;1.55;100.00;102369.22;5011822;28;20503;-44
2022/12/04 04:10:15;;;;;;;61.00;55.13;;;;;;;1.57;100.00;102372.56;5012313;28;20429;-43
2022/12/04 04:24:12;;;;;;;63.63;56.90;;;;;;;1.61;100.00;102371.44;5011628;28;20461;-46
2022/12/04 04:24:27;;;;;;;58.07;51.80;;;;;;;1.62;100.00;102366.06;4931648;29;20448;-45
2022/12/04 04:26:58;;;;;;;59.50;53.17;;;;;;;1.63;100.00;102367.75;4998937;28;20456;-43
2022/12/04 04:29:26;;;;;;;57.47;51.53;;;;;;;1.62;100.00;102371.31;5011853;28;20906;-47
2022/12/04 04:32:03;;;;;;;59.63;53.33;;;;;;;1.58;100.00;102366.38;5011518;28;20818;-43
2022/12/04 04:34:44;;;;;;;56.73;51.43;;;;;;;1.60;100.00;102362.72;5011559;28;20977;-42
2022/12/04 04:37:21;;;;;;;56.07;50.70;;;;;;;1.63;100.00;102362.50;5011907;28;20457;-44
2022/12/04 04:39:58;;;;;;;57.27;51.57;;;;;;;1.66;100.00;102359.69;5012080;28;20436;-43
2022/12/04 04:42:29;;;;;;;59.90;53.70;;;;;;;1.69;100.00;102363.88;5011523;28;20472;-43
2022/12/04 04:45:04;;;;;;;60.33;54.07;;;;;;;1.68;100.00;102360.41;5011505;28;20429;-43
2022/12/04 04:47:41;;;;;;;59.30;52.97;;;;;;;1.68;100.00;102357.78;5012052;28;20530;-46
2022/12/04 04:50:11;;;;;;;57.40;52.00;;;;;;;1.72;100.00;102349.69;5014913;28;20453;-43
2022/12/04 04:52:42;;;;;;;60.27;54.40;;;;;;;1.73;100.00;102352.25;5015031;28;20980;-44
2022/12/04 04:55:11;;;;;;;61.77;55.50;;;;;;;1.76;100.00;102359.94;5015012;28;20476;-44
2022/12/04 04:57:38;;;;;;;62.53;56.17;;;;;;;1.77;100.00;102368.63;5015054;28;20456;-44
2022/12/04 05:00:08;;;;;;;58.90;53.37;;;;;;;1.79;100.00;102359.72;5015179;28;20436;-44
2022/12/04 05:02:37;;;;;;;60.47;54.47;;;;;;;1.83;100.00;102368.22;5014987;28;20507;-43
2022/12/04 05:05:06;;;;;;;62.50;55.80;;;;;;;1.83;100.00;102363.81;5015104;28;20429;-47
2022/12/04 05:07:34;;;;;;;60.10;54.07;;;;;;;1.84;100.00;102367.31;5015128;28;20464;-43
2022/12/04 05:10:02;;;;;;;60.90;54.30;;;;;;;1.86;100.00;102363.63;5015080;28;20921;-43
2022/12/04 05:12:29;;;;;;;59.67;53.57;;;;;;;1.86;100.00;102362.78;5014506;28;20468;-43
2022/12/04 05:14:57;;;;;;;61.23;54.70;;;;;;;1.87;100.00;102365.31;5014697;28;20472;-44
2022/12/04 05:17:25;;;;;;;61.73;53.63;;;;;;;1.88;100.00;102358.28;5014781;28;21024;-46
2022/12/04 05:19:53;;;;;;;60.37;54.37;;;;;;;1.89;100.00;102355.53;5015071;28;20433;-43
2022/12/04 05:22:24;;;;;;;59.83;53.70;;;;;;;1.88;100.00;102356.47;5014430;28;20997;-44
2022/12/04 05:24:52;;;;;;;60.67;54.13;;;;;;;1.90;100.00;102359.84;5014590;28;20422;-43
2022/12/04 05:27:20;;;;;;;60.20;52.43;;;;;;;1.91;100.00;102355.44;5014983;28;20457;-43
2022/12/04 05:29:48;;;;;;;64.13;54.23;;;;;;;1.92;100.00;102357.97;5014856;28;20528;-45
2022/12/04 05:32:16;;;;;;;67.50;56.43;;;;;;;1.91;100.00;102369.41;5014259;28;20826;-43
2022/12/04 05:34:43;;;;;;;60.67;54.70;;;;;;;1.90;100.00;102362.47;5014397;28;20483;-45
2022/12/04 05:37:12;;;;;;;61.40;55.03;;;;;;;1.88;100.00;102364.34;5014462;28;20457;-48
2022/12/04 05:39:40;;;;;;;58.67;52.67;;;;;;;1.91;100.00;102374.69;5014808;28;20447;-44
2022/12/04 05:42:08;;;;;;;60.33;53.83;;;;;;;1.90;100.00;102374.78;5014275;28;20461;-45
2022/12/04 05:44:35;;;;;;;59.73;53.67;;;;;;;1.91;100.00;102372.03;5014310;28;20430;-45
2022/12/04 05:47:03;;;;;;;60.80;54.30;;;;;;;1.94;100.00;102368.41;5014617;28;20828;-43
2022/12/04 05:49:32;;;;;;;58.67;53.10;;;;;;;1.94;100.00;102365.75;5014410;28;20967;-44
2022/12/04 05:52:00;;;;;;;56.40;51.10;;;;;;;1.98;100.00;102369.84;5013735;28;21057;-46
2022/12/04 05:54:29;;;;;;;57.43;51.80;;;;;;;2.02;100.00;102368.72;5014181;28;20433;-45
2022/12/04 05:56:57;;;;;;;56.67;51.43;;;;;;;2.05;100.00;102364.09;5014206;28;20465;-47
2022/12/04 05:59:24;;;;;;;59.90;54.20;;;;;;;2.11;100.00;102368.09;5014103;28;20437;-44
2022/12/04 06:01:52;;;;;;;58.90;53.80;;;;;;;2.16;100.00;102366.00;5013890;28;20487;-44
2022/12/04 06:04:20;;;;;;;58.10;52.57;;;;;;;2.19;100.00;102373.69;5013897;28;20441;-45
2022/12/04 06:06:48;;;;;;;56.73;51.63;;;;;;;2.22;100.00;102373.47;5013501;28;20485;-47
2022/12/04 06:09:16;;;;;;;56.17;50.97;;;;;;;2.26;100.00;102376.75;5013779;28;20433;-44
2022/12/04 06:11:45;;;;;;;53.70;48.90;;;;;;;2.31;100.00;102375.50;5013518;28;20433;-43
2022/12/04 06:14:14;;;;;;;56.97;51.60;;;;;;;2.36;100.00;102373.38;5013731;28;20437;-45
2022/12/04 06:16:44;;;;;;;58.80;53.40;;;;;;;2.41;100.00;102373.94;5013830;28;20503;-44
2022/12/04 06:19:14;;;;;;;57.20;51.60;;;;;;;2.43;100.00;102377.31;5013047;28;20483;-43
2022/12/04 06:21:44;;;;;;;59.07;53.60;;;;;;;2.42;100.00;102380.06;5013492;28;20453;-44
2022/12/04 06:24:14;;;;;;;57.63;52.20;;;;;;;2.45;100.00;102372.75;5014020;28;20429;-44
2022/12/04 06:26:42;;;;;;;60.33;54.23;;;;;;;2.51;100.00;102379.44;5013605;28;20461;-47
2022/12/04 06:29:31;;;;;;;55.00;49.90;;;;;;;2.54;100.00;102376.59;5013447;28;20512;-43
2022/12/04 06:31:59;;;;;;;54.63;49.63;;;;;;;2.58;100.00;102378.03;5010799;28;20468;-45
2022/12/04 06:34:27;;;;;;;57.00;51.67;;;;;;;2.58;100.00;102381.53;5012597;28;20429;-47
2022/12/04 06:36:55;;;;;;;60.47;54.37;;;;;;;2.60;100.00;102387.53;5013150;28;20982;-44
2022/12/04 06:39:22;;;;;;;60.17;54.17;;;;;;;2.63;100.00;102376.78;5013382;28;20436;-44
2022/12/04 06:41:50;;;;;;;59.60;53.83;;;;;;;2.68;100.00;102379.97;5012747;28;20547;-43
2022/12/04 06:44:18;;;;;;;60.20;54.20;;;;;;;2.70;100.00;102388.59;5012844;28;20926;-43
2022/12/04 06:46:49;;;;;;;60.77;55.03;;;;;;;2.75;100.00;102385.63;5012876;28;20453;-46
2022/12/04 06:49:18;;;;;;;58.00;52.50;;;;;;;2.77;100.00;102381.97;5013285;28;20436;-45
2022/12/04 06:51:45;;;;;;;59.40;53.73;;;;;;;2.75;100.00;102383.84;5009648;28;20453;-44
2022/12/04 06:54:13;;;;;;;58.47;52.90;;;;;;;2.80;100.00;102386.16;4993053;28;20950;-46
2022/12/04 06:56:41;;;;;;;62.30;56.50;;;;;;;2.79;100.00;102377.41;4993004;28;20482;-47
2022/12/04 06:59:10;;;;;;;59.70;53.73;;;;;;;2.81;100.00;102379.09;4993540;28;20437;-43
2022/12/04 07:01:37;;;;;;;57.70;52.30;;;;;;;2.86;100.00;102382.25;4992377;28;20437;-45
2022/12/04 07:04:06;;;;;;;59.37;53.47;;;;;;;2.87;100.00;102376.88;4993060;28;20438;-44
2022/12/04 07:06:36;;;;;;;60.40;54.47;;;;;;;2.91;100.00;102380.97;4992923;28;20459;-48
2022/12/04 07:09:06;;;;;;;58.10;52.90;;;;;;;2.93;100.00;102381.72;4992983;28;20445;-45
2022/12/04 07:11:34;;;;;;;56.67;51.60;;;;;;;2.96;100.00;102385.91;4992023;28;20433;-45
2022/12/04 07:14:02;;;;;;;58.40;52.70;;;;;;;2.97;100.00;102388.47;4985794;28;20443;-45
2022/12/04 07:16:30;;;;;;;59.93;54.40;;;;;;;3.02;100.00;102393.38;4992155;28;20528;-47
2022/12/04 07:19:08;;;;;;;59.80;53.97;;;;;;;3.02;100.00;102385.47;4992900;28;20961;-45
2022/12/04 07:21:35;;;;;;;58.77;53.27;;;;;;;2.99;100.00;102399.72;4992176;28;20434;-44
2022/12/04 07:24:03;;;;;;;61.00;54.80;;;;;;;3.01;100.00;102387.31;4992461;28;20442;-44
2022/12/04 07:26:31;;;;;;;59.40;53.40;;;;;;;3.03;100.00;102388.03;4992520;28;20460;-48
2022/12/04 07:28:59;;;;;;;59.57;54.13;;;;;;;3.02;100.00;102399.50;4992948;28;20438;-44
2022/12/04 07:31:29;;;;;;;59.93;54.03;;;;;;;3.06;100.00;102406.25;4991907;28;20445;-48
2022/12/04 07:33:57;;;;;;;60.97;54.97;;;;;;;3.08;100.00;102395.59;4992728;28;20434;-46
2022/12/04 07:36:27;;;;;;;61.87;56.07;;;;;;;3.08;100.00;102400.88;4993002;28;20482;-46
2022/12/04 07:38:55;;;;;;;59.60;53.80;;;;;;;3.05;100.00;102398.44;4993001;28;20435;-45
2022/12/04 07:41:23;;;;;;;61.27;54.87;;;;;;;3.09;100.00;102392.03;4992800;28;20521;-48
2022/12/04 07:43:51;;;;;;;57.97;52.00;;;;;;;3.10;100.00;102401.63;4991646;28;20453;-50
2022/12/04 07:46:21;;;;;;;58.03;52.63;;;;;;;3.09;100.00;102400.78;4992284;28;21014;-44
2022/12/04 07:48:49;;;;;;;55.73;50.53;;;;;;;3.11;100.00;102400.66;4992498;28;20434;-45
2022/12/04 07:51:18;;;;;;;56.00;50.90;;;;;;;3.15;100.00;102394.22;4992659;28;20440;-47
2022/12/04 07:53:48;;;;;;;57.03;51.83;;;;;;;3.16;100.00;102393.28;4991693;28;20461;-45
2022/12/04 07:56:16;;;;;;;56.47;50.87;;;;;;;3.17;100.00;102398.44;4992153;28;20482;-45
2022/12/04 07:58:44;;;;;;;57.07;51.50;;;;;;;3.20;100.00;102397.38;4991468;28;20442;-44
2022/12/04 08:01:13;;;;;;;57.60;51.90;;;;;;;3.21;100.00;102396.44;4990318;28;20442;-44
2022/12/04 08:03:43;;;;;;;56.97;51.87;;;;;;;3.25;100.00;102395.28;4990073;28;21013;-47
2022/12/04 08:06:16;;;;;;;57.93;52.57;;;;;;;3.26;100.00;102392.50;5004677;28;20445;-45
2022/12/04 08:08:44;;;;;;;59.60;53.90;;;;;;;3.27;100.00;102396.84;5011846;28;20462;-46
2022/12/04 08:11:15;;;;;;;56.07;51.10;;;;;;;3.30;100.00;102393.13;5011905;28;20776;-43
2022/12/04 08:13:43;;;;;;;59.30;53.77;;;;;;;3.27;100.00;102393.34;5010699;28;20472;-45
2022/12/04 08:16:11;;;;;;;56.70;51.60;;;;;;;3.30;100.00;102395.78;5011423;28;20523;-44
2022/12/04 08:18:40;;;;;;;58.90;53.40;;;;;;;3.32;100.00;102393.84;5011696;28;20439;-44
2022/12/04 08:21:09;;;;;;;55.80;50.60;;;;;;;3.29;100.00;102402.84;5012085;28;20443;-44
2022/12/04 08:23:38;;;;;;;56.17;51.13;;;;;;;3.30;100.00;102404.53;5013534;28;20457;-43
2022/12/04 08:26:06;;;;;;;56.30;51.10;;;;;;;3.31;100.00;102395.69;5015727;28;20445;-45
2022/12/04 08:28:35;;;;;;;56.63;51.23;;;;;;;3.33;100.00;102395.56;5015605;28;20799;-44
2022/12/04 08:31:04;;;;;;;55.27;50.07;;;;;;;3.36;100.00;102403.25;5015809;28;20433;-43
2022/12/04 08:33:31;;;;;;;54.07;49.50;;;;;;;3.38;100.00;102398.69;5015056;28;20465;-43
2022/12/04 08:36:00;;;;;;;58.10;52.50;;;;;;;3.40;100.00;102399.44;5015283;28;20481;-45
2022/12/04 08:38:28;;;;;;;57.77;52.40;;;;;;;3.41;100.00;102398.47;5008911;28;20441;-43
2022/12/04 08:40:59;;;;;;;58.33;52.70;;;;;;;3.39;100.00;102403.03;5011462;28;20429;-43
2022/12/04 08:43:27;;;;;;;58.57;53.27;;;;;;;3.37;100.00;102398.81;5011896;28;20811;-43
2022/12/04 08:45:58;;;;;;;59.27;53.87;;;;;;;3.38;100.00;102406.59;5002466;28;20434;-42
2022/12/04 08:48:27;;;;;;;58.77;53.37;;;;;;;3.41;100.00;102403.75;5001696;28;20831;-46
2022/12/04 08:50:55;;;;;;;59.57;53.90;;;;;;;3.43;100.00;102398.38;5004639;28;20420;-45
2022/12/04 08:53:23;;;;;;;54.87;50.00;;;;;;;3.44;100.00;102392.13;5006071;28;20552;-44
2022/12/04 08:55:51;;;;;;;55.67;50.73;;;;;;;3.45;100.00;102399.94;4996502;28;20444;-43
2022/12/04 08:58:19;;;;;;;53.37;48.83;;;;;;;3.46;100.00;102396.38;4994827;28;20437;-43
2022/12/04 09:00:47;;;;;;;57.17;51.93;;;;;;;3.49;100.00;102388.25;5000373;28;20438;-45
2022/12/04 09:03:17;;;;;;;56.33;51.33;;;;;;;3.51;100.00;102394.22;5001043;28;20843;-43
2022/12/04 09:05:46;;;;;;;56.87;51.43;;;;;;;3.53;100.00;102400.22;4999164;28;20422;-46
2022/12/04 09:08:15;;;;;;;55.47;50.13;;;;;;;3.54;100.00;102406.34;4998598;28;20455;-43
2022/12/04 09:10:43;;;;;;;60.27;52.60;;;;;;;3.56;100.00;102401.81;5004654;28;20827;-45
2022/12/04 09:13:11;;;;;;;58.77;53.37;;;;;;;3.58;100.00;102408.69;4996314;28;20465;-45
2022/12/04 09:15:39;;;;;;;55.73;50.37;;;;;;;3.60;100.00;102405.91;5020063;23;20498;-46
2022/12/04 09:18:08;;;;;;;59.10;53.90;;;;;;;3.59;100.00;102412.97;5028343;28;20468;-48
2022/12/04 09:20:37;;;;;;;56.33;51.33;;;;;;;3.60;100.00;102406.75;5025467;28;20519;-45
2022/12/04 09:23:05;;;;;;;57.43;52.30;;;;;;;3.62;100.00;102415.41;5032154;28;20539;-47
2022/12/04 09:25:35;;;;;;;55.30;50.23;;;;;;;3.63;100.00;102414.44;5033130;28;20448;-48
2022/12/04 09:28:03;;;;;;;54.17;49.47;;;;;;;3.64;100.00;102407.38;5033891;28;20432;-46
2022/12/04 09:30:31;;;;;;;53.53;48.97;;;;;;;3.63;100.00;102409.19;5033935;28;20531;-46
2022/12/04 09:32:59;;;;;;;55.90;50.90;;;;;;;3.63;100.00;102409.19;5033344;28;20798;-44
2022/12/04 09:35:26;;;;;;;52.43;47.47;;;;;;;3.65;100.00;102412.53;5027305;28;20583;-49
2022/12/04 09:37:57;;;;;;;53.23;48.50;;;;;;;3.61;100.00;102405.81;5033238;28;20480;-48
2022/12/04 09:40:28;;;;;;;50.00;45.70;;;;;;;3.63;100.00;102410.97;5033796;28;21069;-44
2022/12/04 09:43:13;;;;;;;50.93;46.60;;;;;;;3.67;100.00;102413.28;5031420;28;20471;-46
2022/12/04 09:45:46;;;;;;;51.00;46.60;;;;;;;3.69;100.00;102411.38;5031674;28;20813;-44
2022/12/04 09:48:18;;;;;;;54.10;49.10;;;;;;;3.73;100.00;102412.81;5033889;28;20443;-49
2022/12/04 09:50:47;;;;;;;51.13;46.77;;;;;;;3.75;100.00;102408.28;5012710;28;20433;-45
2022/12/04 09:53:19;;;;;;;49.33;44.97;;;;;;;3.75;100.00;102408.28;5013411;28;21016;-46
2022/12/04 09:55:54;;;;;;;49.03;44.77;;;;;;;3.81;100.00;102412.28;5021963;28;20452;-45
2022/12/04 09:58:28;;;;;;;50.83;46.03;;;;;;;3.83;100.00;102403.28;5026494;28;20471;-46
2022/12/04 10:00:57;;;;;;;52.03;47.40;;;;;;;3.85;100.00;102397.91;5032370;28;21081;-44
2022/12/04 10:03:28;;;;;;;47.80;43.90;;;;;;;3.82;100.00;102401.59;5015233;28;20461;-45
2022/12/04 10:06:09;;;;;;;49.23;45.30;;;;;;;3.84;100.00;102407.63;5030244;28;20868;-46
2022/12/04 10:08:41;;;;;;;49.70;45.73;;;;;;;3.90;100.00;102403.69;5025216;28;20491;-44
2022/12/04 10:11:16;;;;;;;49.73;45.53;;;;;;;3.91;100.00;102408.00;5032133;28;20445;-45
2022/12/04 10:14:05;;;;;;;49.60;45.50;;;;;;;3.95;100.00;102400.69;5032439;28;20478;-45
2022/12/04 10:16:45;;;;;;;49.13;45.03;;;;;;;4.01;100.00;102411.63;5032000;28;20463;-48
2022/12/04 10:19:18;;;;;;;49.60;45.30;;;;;;;4.06;100.00;102409.50;5028961;28;20527;-46
2022/12/04 10:21:58;;;;;;;50.13;45.83;;;;;;;4.15;100.00;102402.72;5031678;28;20554;-52
2022/12/04 10:24:39;;;;;;;49.80;45.63;;;;;;;4.23;100.00;102395.03;5025649;28;20452;-48
2022/12/04 10:27:14;;;;;;;49.43;45.33;;;;;;;4.32;100.00;102391.72;5025353;28;20973;-46
2022/12/04 10:29:43;;;;;;;48.27;44.33;;;;;;;4.34;100.00;102393.28;5015129;28;20462;-46
2022/12/04 10:32:20;;;;;;;48.90;44.57;;;;;;;4.43;100.00;102389.09;5011767;28;20461;-48
2022/12/04 10:34:50;;;;;;;49.23;45.33;;;;;;;4.49;100.00;102385.97;5014957;28;20507;-45
2022/12/04 10:37:18;;;;;;;48.77;44.77;;;;;;;4.55;100.00;102374.09;5029135;28;20486;-44
2022/12/04 10:39:52;;;;;;;48.90;45.00;;;;;;;4.63;100.00;102369.91;5032299;28;20959;-45
2022/12/04 10:42:27;;;;;;;55.50;50.93;;;;;;;4.72;100.00;102379.75;5024464;28;21007;-46
2022/12/04 10:44:55;;;;;;;52.53;48.00;;;;;;;4.73;100.00;102376.16;5015205;28;20451;-45
2022/12/04 10:47:24;;;;;;;50.80;47.00;;;;;;;4.74;100.00;102377.84;5023518;28;20432;-45
2022/12/04 10:49:59;;;;;;;53.03;48.83;;;;;;;4.73;100.00;102388.53;5020200;28;20440;-45
2022/12/04 10:52:26;;;;;;;50.87;46.67;;;;;;;4.76;100.00;102375.09;5022439;28;20558;-43
2022/12/04 10:54:58;;;;;;;49.90;45.70;;;;;;;4.79;100.00;102373.03;5025535;28;20782;-46
2022/12/04 10:57:36;;;;;;;49.60;45.20;;;;;;;4.84;100.00;102370.88;5022680;28;20468;-45
2022/12/04 11:00:23;;;;;;;49.97;46.10;;;;;;;4.87;100.00;102357.41;5014856;28;20432;-49
2022/12/04 11:02:53;;;;;;;49.63;45.73;;;;;;;4.97;100.00;102355.75;5031014;28;20499;-47
2022/12/04 11:05:26;;;;;;;48.27;44.63;;;;;;;4.98;100.00;102362.72;5025909;28;20452;-44
2022/12/04 11:07:55;;;;;;;47.13;43.60;;;;;;;4.91;100.00;102353.59;5029660;28;20451;-47
2022/12/04 11:10:31;;;;;;;46.70;43.30;;;;;;;4.91;100.00;102356.22;5015257;28;20443;-49
2022/12/04 11:13:01;;;;;;;49.03;45.27;;;;;;;5.01;100.00;102353.72;5025813;28;20459;-45
2022/12/04 11:15:29;;;;;;;47.17;43.67;;;;;;;5.08;100.00;102359.34;5023646;28;20465;-45
2022/12/04 11:18:07;;;;;;;47.90;44.10;;;;;;;5.03;100.00;102354.41;5019935;28;20556;-46
2022/12/04 11:20:35;;;;;;;48.47;44.90;;;;;;;5.08;100.00;102344.31;5029626;28;20447;-44
2022/12/04 11:23:04;;;;;;;52.27;48.60;;;;;;;5.05;100.00;102347.19;5024344;28;20460;-44
2022/12/04 11:25:44;;;;;;;49.60;45.80;;;;;;;5.08;100.00;102332.91;5018297;28;20476;-46
2022/12/04 11:28:16;;;;;;;45.97;42.77;;;;;;;5.14;100.00;102345.66;5009684;28;20441;-47
2022/12/04 11:31:06;;;;;;;45.93;42.70;;;;;;;5.15;100.00;102349.94;5021893;28;20989;-45
2022/12/04 11:33:38;;;;;;;47.80;44.47;;;;;;;5.19;100.00;102351.41;5020094;28;20460;-48